createdAt,value
2023-07-31T00:00:14.006Z,3.45
2023-07-31T00:02:41.072Z,2.83
2023-07-31T00:05:09.642Z,2.90
2023-07-31T00:07:36.869Z,3.40
2023-07-31T00:10:05.799Z,2.53
2023-07-31T00:12:32.969Z,2.90
2023-07-31T00:15:00.132Z,3.33
2023-07-31T00:17:27.045Z,3.10
2023-07-31T00:19:54.166Z,3.40
2023-07-31T00:22:21.118Z,3.53
2023-07-31T00:24:49.310Z,3.38
2023-07-31T00:27:17.711Z,3.13
2023-07-31T00:29:44.720Z,3.00
2023-07-31T00:32:11.664Z,3.13
2023-07-31T00:34:38.770Z,2.75
2023-07-31T00:37:06.307Z,3.10
2023-07-31T00:39:35.538Z,3.15
2023-07-31T00:42:02.684Z,3.45
2023-07-31T00:44:31.098Z,3.08
2023-07-31T00:47:00.356Z,3.22
2023-07-31T00:49:27.713Z,3.50
2023-07-31T00:51:55.477Z,3.13
2023-07-31T00:56:49.789Z,3.53
2023-07-31T00:59:16.810Z,3.42
2023-07-31T01:01:45.243Z,4.10
2023-07-31T01:04:12.878Z,3.83
2023-07-31T01:06:46.589Z,4.20
2023-07-31T01:09:19.507Z,4.25
2023-07-31T01:11:51.433Z,4.78
2023-07-31T01:14:18.563Z,4.28
2023-07-31T01:16:47.050Z,5.07
2023-07-31T01:19:15.970Z,5.43
2023-07-31T01:22:00.860Z,6.45
2023-07-31T01:24:31.584Z,6.88
2023-07-31T01:27:04.644Z,6.15
2023-07-31T01:29:36.907Z,8.88
2023-07-31T01:32:04.885Z,8.63
2023-07-31T01:34:32.659Z,10.40
2023-07-31T01:36:59.734Z,10.15
2023-07-31T01:39:26.830Z,7.55
2023-07-31T01:41:53.933Z,5.47
2023-07-31T01:44:22.918Z,11.68
2023-07-31T01:46:50.018Z,15.38
2023-07-31T01:49:17.040Z,14.35
2023-07-31T01:51:44.132Z,13.75
2023-07-31T01:54:12.180Z,14.27
2023-07-31T01:56:39.557Z,14.90
2023-07-31T01:59:07.076Z,16.08
2023-07-31T02:01:35.956Z,14.35
2023-07-31T02:04:03.131Z,15.77
2023-07-31T02:06:30.590Z,16.60
2023-07-31T02:08:57.600Z,15.27
2023-07-31T02:11:24.590Z,14.93
2023-07-31T02:13:51.624Z,15.48
2023-07-31T02:16:18.604Z,14.82
2023-07-31T02:18:47.158Z,16.42
2023-07-31T02:21:14.154Z,15.65
2023-07-31T02:23:41.164Z,16.05
2023-07-31T02:26:08.171Z,15.88
2023-07-31T02:28:35.261Z,14.55
2023-07-31T02:31:02.224Z,15.45
2023-07-31T02:33:29.223Z,15.52
2023-07-31T02:35:57.711Z,15.25
2023-07-31T02:38:24.757Z,15.18
2023-07-31T02:40:51.762Z,15.25
2023-07-31T02:43:18.900Z,15.05
2023-07-31T02:45:45.923Z,15.38
2023-07-31T02:48:12.978Z,16.75
2023-07-31T02:50:40.139Z,16.13
2023-07-31T02:53:08.521Z,16.48
2023-07-31T02:55:35.480Z,15.38
2023-07-31T02:58:03.025Z,15.20
2023-07-31T03:00:30.040Z,16.67
2023-07-31T03:02:57.040Z,14.32
2023-07-31T03:05:24.181Z,16.52
2023-07-31T03:07:51.159Z,15.13
2023-07-31T03:10:19.658Z,15.45
2023-07-31T03:12:49.408Z,15.65
2023-07-31T03:15:16.606Z,16.08
2023-07-31T03:17:43.654Z,15.18
2023-07-31T03:20:11.902Z,15.07
2023-07-31T03:22:39.059Z,15.07
2023-07-31T03:25:06.929Z,14.38
2023-07-31T03:27:35.352Z,13.90
2023-07-31T03:30:04.018Z,14.55
2023-07-31T03:32:31.003Z,15.02
2023-07-31T03:34:58.477Z,14.95
2023-07-31T03:37:25.952Z,15.60
2023-07-31T03:39:52.971Z,14.88
2023-07-31T03:42:20.020Z,15.48
2023-07-31T03:44:48.443Z,15.38
2023-07-31T03:47:15.377Z,14.95
2023-07-31T03:49:42.432Z,14.90
2023-07-31T03:52:09.490Z,15.30
2023-07-31T03:54:36.537Z,14.82
2023-07-31T03:57:04.080Z,15.95
2023-07-31T03:59:30.979Z,15.27
2023-07-31T04:01:59.450Z,15.13
2023-07-31T04:04:26.513Z,14.30
2023-07-31T04:06:56.541Z,14.98
2023-07-31T04:09:23.649Z,14.43
2023-07-31T04:11:50.620Z,15.25
2023-07-31T04:14:17.867Z,15.00
2023-07-31T04:16:44.916Z,15.85
2023-07-31T04:19:17.534Z,14.88
2023-07-31T04:21:44.774Z,16.27
2023-07-31T04:24:11.777Z,15.05
2023-07-31T04:26:38.944Z,14.85
2023-07-31T04:29:06.098Z,12.70
2023-07-31T04:31:33.196Z,11.95
2023-07-31T04:34:00.355Z,12.50
2023-07-31T04:36:28.694Z,13.68
2023-07-31T04:38:55.807Z,13.23
2023-07-31T04:41:22.868Z,12.30
2023-07-31T04:43:49.853Z,11.95
2023-07-31T04:46:16.883Z,11.20
2023-07-31T04:48:43.894Z,12.02
2023-07-31T04:51:11.018Z,10.57
2023-07-31T04:53:39.416Z,10.68
2023-07-31T04:56:06.466Z,10.25
2023-07-31T04:58:33.431Z,10.57
2023-07-31T05:01:00.506Z,9.80
2023-07-31T05:03:27.551Z,10.65
2023-07-31T05:05:54.672Z,10.13
2023-07-31T05:08:21.640Z,10.35
2023-07-31T05:10:50.066Z,9.57
2023-07-31T05:13:17.099Z,10.90
2023-07-31T05:15:44.012Z,9.43
2023-07-31T05:18:11.227Z,10.80
2023-07-31T05:20:38.221Z,10.07
2023-07-31T05:23:05.134Z,9.48
2023-07-31T05:25:32.170Z,8.40
2023-07-31T05:28:00.489Z,8.63
2023-07-31T05:30:27.489Z,9.45
2023-07-31T05:32:54.556Z,9.77
2023-07-31T05:35:21.539Z,8.15
2023-07-31T05:37:48.505Z,8.18
2023-07-31T05:40:15.692Z,8.80
2023-07-31T05:42:42.660Z,9.02
2023-07-31T05:45:11.581Z,7.70
2023-07-31T05:47:38.640Z,7.72
2023-07-31T05:50:06.420Z,7.95
2023-07-31T05:55:00.176Z,6.68
2023-07-31T05:57:27.121Z,8.05
2023-07-31T05:59:54.758Z,6.50
2023-07-31T06:04:50.083Z,6.47
2023-07-31T06:07:17.128Z,6.45
2023-07-31T06:09:44.166Z,5.93
2023-07-31T06:12:11.350Z,5.78
2023-07-31T06:14:38.247Z,4.68
2023-07-31T06:17:06.044Z,5.20
2023-07-31T06:19:34.477Z,5.72
2023-07-31T06:22:01.520Z,5.28
2023-07-31T06:24:29.508Z,4.00
2023-07-31T06:26:56.438Z,4.00
2023-07-31T06:29:23.506Z,3.63
2023-07-31T06:31:50.490Z,4.03
2023-07-31T06:34:18.023Z,4.57
2023-07-31T06:36:46.333Z,3.15
2023-07-31T06:39:13.342Z,3.50
2023-07-31T06:41:40.287Z,3.30
2023-07-31T06:44:11.065Z,3.03
2023-07-31T06:46:38.581Z,2.25
2023-07-31T06:54:05.382Z,3.05
2023-07-31T06:56:32.486Z,2.85
2023-07-31T06:59:17.620Z,2.78
2023-07-31T07:01:44.732Z,3.28
2023-07-31T07:04:12.002Z,3.38
2023-07-31T07:06:39.253Z,3.20
2023-07-31T07:09:07.922Z,2.80
2023-07-31T07:11:35.481Z,2.60
2023-07-31T07:14:02.589Z,2.50
2023-07-31T07:16:29.983Z,2.58
2023-07-31T07:19:04.475Z,2.00
2023-07-31T07:21:32.465Z,2.50
2023-07-31T07:23:59.406Z,2.10
2023-07-31T07:26:28.106Z,1.98
2023-07-31T07:28:55.276Z,1.70
2023-07-31T07:31:22.439Z,2.00
2023-07-31T07:33:49.534Z,1.73
2023-07-31T07:36:16.403Z,2.20
2023-07-31T07:38:43.576Z,1.40
2023-07-31T07:41:10.590Z,1.65
2023-07-31T07:43:39.051Z,1.70
2023-07-31T07:46:06.078Z,1.75
2023-07-31T07:48:33.051Z,1.92
2023-07-31T07:51:00.012Z,1.70
2023-07-31T07:53:27.368Z,2.38
2023-07-31T07:55:54.334Z,1.92
2023-07-31T07:58:21.404Z,2.25
2023-07-31T08:00:53.328Z,1.50
2023-07-31T08:03:20.476Z,1.90
2023-07-31T08:05:47.573Z,1.90
2023-07-31T08:08:16.806Z,1.70
2023-07-31T08:10:43.831Z,2.05
2023-07-31T08:13:11.160Z,1.83
2023-07-31T08:15:38.153Z,1.77
2023-07-31T08:18:06.534Z,1.55
2023-07-31T08:20:33.595Z,1.35
2023-07-31T08:23:00.537Z,1.90
2023-07-31T08:25:27.623Z,1.67
2023-07-31T08:27:55.247Z,1.63
2023-07-31T08:30:22.643Z,2.08
2023-07-31T08:32:50.458Z,1.90
2023-07-31T08:35:19.157Z,2.25
2023-07-31T08:37:47.225Z,1.70
2023-07-31T08:40:14.858Z,1.73
2023-07-31T08:42:45.565Z,1.70
2023-07-31T08:45:15.215Z,1.77
2023-07-31T08:47:43.061Z,1.92
2023-07-31T08:50:10.862Z,2.00
2023-07-31T08:52:39.391Z,1.60
2023-07-31T08:55:07.640Z,1.65
2023-07-31T08:57:36.402Z,2.15
2023-07-31T09:00:04.534Z,1.90
2023-07-31T09:02:36.269Z,1.60
2023-07-31T09:05:03.858Z,1.77
2023-07-31T09:07:32.896Z,1.48
2023-07-31T09:10:01.287Z,1.60
2023-07-31T09:12:28.342Z,1.50
2023-07-31T09:14:55.317Z,1.40
2023-07-31T09:17:30.382Z,1.55
2023-07-31T09:19:57.379Z,1.88
2023-07-31T09:22:36.068Z,1.20
2023-07-31T09:25:20.003Z,1.45
2023-07-31T09:27:47.982Z,1.70
2023-07-31T09:30:15.100Z,1.60
2023-07-31T09:32:42.186Z,1.42
2023-07-31T09:35:21.127Z,1.67
2023-07-31T09:37:52.187Z,1.58
2023-07-31T09:40:30.984Z,1.58
2023-07-31T09:42:59.248Z,1.85
2023-07-31T09:45:32.127Z,1.55
2023-07-31T09:48:10.296Z,1.50
2023-07-31T09:50:38.347Z,1.55
2023-07-31T09:53:05.572Z,1.60
2023-07-31T09:55:36.150Z,1.70
2023-07-31T09:58:05.978Z,1.65
2023-07-31T10:00:33.112Z,2.13
2023-07-31T10:03:02.272Z,2.25
2023-07-31T10:05:32.433Z,1.88
2023-07-31T10:07:59.985Z,1.90
2023-07-31T10:10:28.691Z,1.88
2023-07-31T10:12:57.897Z,1.63
2023-07-31T10:15:25.508Z,1.85
2023-07-31T10:17:53.333Z,1.85
2023-07-31T10:20:20.649Z,1.42
2023-07-31T10:22:47.704Z,1.38
2023-07-31T10:25:16.662Z,1.58
2023-07-31T10:27:43.927Z,1.50
2023-07-31T10:30:17.826Z,1.50
2023-07-31T10:32:46.784Z,1.58
2023-07-31T10:35:13.906Z,1.48
2023-07-31T10:37:43.260Z,0.90
2023-07-31T10:40:13.319Z,1.20
2023-07-31T10:42:48.603Z,1.45
2023-07-31T10:45:27.413Z,0.90
2023-07-31T10:48:00.916Z,1.15
2023-07-31T10:52:56.215Z,1.20
2023-07-31T10:55:32.200Z,1.20
2023-07-31T10:58:07.185Z,1.30
2023-07-31T11:00:38.192Z,1.30
2023-07-31T11:03:06.236Z,1.05
2023-07-31T11:05:51.008Z,1.20
2023-07-31T11:08:20.572Z,1.10
2023-07-31T11:10:48.442Z,1.00
2023-07-31T11:13:15.742Z,1.20
2023-07-31T11:15:44.164Z,1.20
2023-07-31T11:18:12.525Z,0.75
2023-07-31T11:20:40.020Z,1.15
2023-07-31T11:23:09.749Z,0.95
2023-07-31T11:25:37.036Z,1.05
2023-07-31T11:28:08.505Z,1.38
2023-07-31T11:30:35.900Z,0.85
2023-07-31T11:33:05.755Z,0.90
2023-07-31T11:35:33.589Z,1.10
2023-07-31T11:38:00.894Z,0.88
2023-07-31T11:40:32.931Z,1.30
2023-07-31T11:43:19.332Z,1.08
2023-07-31T11:45:48.285Z,1.23
2023-07-31T11:48:22.154Z,0.98
2023-07-31T11:50:50.848Z,1.08
2023-07-31T11:53:18.800Z,1.60
2023-07-31T11:55:46.327Z,1.30
2023-07-31T11:58:13.335Z,1.10
2023-07-31T12:00:40.362Z,1.40
2023-07-31T12:03:07.463Z,1.70
2023-07-31T12:08:10.390Z,1.70
2023-07-31T12:10:37.528Z,1.55
2023-07-31T12:13:06.230Z,1.38
2023-07-31T12:15:38.017Z,1.70
2023-07-31T12:18:10.080Z,1.60
2023-07-31T12:20:41.828Z,2.15
2023-07-31T12:23:08.721Z,1.83
2023-07-31T12:25:37.196Z,1.88
2023-07-31T12:28:12.543Z,1.85
2023-07-31T12:30:41.400Z,2.05
2023-07-31T12:33:14.555Z,2.83
2023-07-31T12:35:46.325Z,2.22
2023-07-31T12:38:14.101Z,2.33
2023-07-31T12:40:41.700Z,3.03
2023-07-31T12:43:09.383Z,3.35
2023-07-31T12:45:36.829Z,3.90
2023-07-31T12:48:04.297Z,3.05
2023-07-31T12:50:31.403Z,3.35
2023-07-31T12:52:59.757Z,3.30
2023-07-31T12:55:26.865Z,3.15
2023-07-31T12:57:53.874Z,3.28
2023-07-31T13:00:22.502Z,3.33
2023-07-31T13:02:50.260Z,2.95
2023-07-31T13:05:17.461Z,2.95
2023-07-31T13:10:12.735Z,3.75
2023-07-31T13:12:39.890Z,3.17
2023-07-31T13:17:34.917Z,4.32
2023-07-31T13:20:02.086Z,3.88
2023-07-31T13:22:29.071Z,4.43
2023-07-31T13:24:56.116Z,3.45
2023-07-31T13:27:25.518Z,4.05
2023-07-31T13:29:53.016Z,3.38
2023-07-31T13:32:22.901Z,3.65
2023-07-31T13:34:50.069Z,3.63
2023-07-31T13:37:17.095Z,3.65
2023-07-31T13:39:44.272Z,3.20
2023-07-31T13:44:41.956Z,5.35
2023-07-31T13:47:09.354Z,3.20
2023-07-31T13:49:36.969Z,3.03
2023-07-31T13:52:04.745Z,3.13
2023-07-31T13:54:31.765Z,2.53
2023-07-31T13:56:58.852Z,3.08
2023-07-31T13:59:25.913Z,2.50
2023-07-31T14:01:54.335Z,2.70
2023-07-31T14:04:21.282Z,2.92
2023-07-31T14:06:49.236Z,2.80
2023-07-31T14:09:16.168Z,2.60
2023-07-31T14:11:43.206Z,2.78
2023-07-31T14:14:10.424Z,2.38
2023-07-31T14:16:37.863Z,2.60
2023-07-31T14:19:06.816Z,2.83
2023-07-31T14:21:33.941Z,2.45
2023-07-31T14:24:01.044Z,2.95
2023-07-31T14:26:28.161Z,3.00
2023-07-31T14:28:55.289Z,2.75
2023-07-31T14:31:22.316Z,2.80
2023-07-31T14:33:49.414Z,3.20
2023-07-31T14:36:17.700Z,2.80
2023-07-31T14:38:44.691Z,2.65
2023-07-31T14:41:11.772Z,2.53
2023-07-31T14:43:38.708Z,2.42
2023-07-31T14:46:06.443Z,2.42
2023-07-31T14:48:33.495Z,2.40
2023-07-31T14:51:01.068Z,2.25
2023-07-31T14:53:29.419Z,2.50
2023-07-31T14:55:57.001Z,4.38
2023-07-31T14:58:25.108Z,2.25
2023-07-31T15:00:52.173Z,5.53
2023-07-31T15:03:19.274Z,4.50
2023-07-31T15:05:46.654Z,6.45
2023-07-31T15:08:13.559Z,2.67
2023-07-31T15:10:42.087Z,2.45
2023-07-31T15:13:09.032Z,2.50
2023-07-31T15:15:36.004Z,3.42
2023-07-31T15:18:03.031Z,2.55
2023-07-31T15:20:30.413Z,2.30
2023-07-31T15:25:24.278Z,2.05
2023-07-31T15:27:52.593Z,2.30
2023-07-31T15:30:19.575Z,2.10
2023-07-31T15:32:49.676Z,1.90
2023-07-31T15:35:17.982Z,2.20
2023-07-31T15:37:46.388Z,1.70
2023-07-31T15:40:13.445Z,1.60
2023-07-31T15:42:40.995Z,2.10
2023-07-31T15:45:11.638Z,1.52
2023-07-31T15:47:39.004Z,1.55
2023-07-31T15:52:33.331Z,1.30
2023-07-31T15:55:00.468Z,1.40
2023-07-31T15:57:29.178Z,1.50
2023-07-31T15:59:58.147Z,1.50
2023-07-31T16:02:26.651Z,1.30
2023-07-31T16:04:53.630Z,1.40
2023-07-31T16:07:22.491Z,1.17
2023-07-31T16:09:49.464Z,1.40
2023-07-31T16:12:16.365Z,1.60
2023-07-31T16:14:43.405Z,1.23
2023-07-31T16:17:10.452Z,1.30
2023-07-31T16:19:38.858Z,1.27
2023-07-31T16:22:06.600Z,1.38
2023-07-31T16:24:33.590Z,1.42
2023-07-31T16:27:00.548Z,1.10
2023-07-31T16:29:27.553Z,0.95
2023-07-31T16:31:58.064Z,1.33
2023-07-31T16:34:26.256Z,1.20
2023-07-31T16:36:57.153Z,1.10
2023-07-31T16:39:24.580Z,1.30
2023-07-31T16:41:51.843Z,1.17
2023-07-31T16:46:45.773Z,1.00
2023-07-31T16:49:12.769Z,1.10
2023-07-31T16:51:40.119Z,1.23
2023-07-31T16:54:08.742Z,1.20
2023-07-31T16:56:48.430Z,0.98
2023-07-31T16:59:20.939Z,0.82
2023-07-31T17:01:48.263Z,0.98
2023-07-31T17:04:15.601Z,0.60
2023-07-31T17:06:43.229Z,0.90
2023-07-31T17:09:11.829Z,0.90
2023-07-31T17:11:39.467Z,0.88
2023-07-31T17:14:08.102Z,0.95
2023-07-31T17:16:36.432Z,1.08
2023-07-31T17:19:03.578Z,1.08
2023-07-31T17:21:30.736Z,1.20
2023-07-31T17:23:57.859Z,1.02
2023-07-31T17:26:26.379Z,1.02
2023-07-31T17:28:53.405Z,0.80
2023-07-31T17:31:20.432Z,1.10
2023-07-31T17:33:47.459Z,0.95
2023-07-31T17:36:14.569Z,1.08
2023-07-31T17:38:41.470Z,1.25
2023-07-31T17:41:09.622Z,1.27
2023-07-31T17:43:38.039Z,1.00
2023-07-31T17:46:05.192Z,1.23
2023-07-31T17:48:32.856Z,1.52
2023-07-31T17:50:59.935Z,1.25
2023-07-31T17:53:26.847Z,1.25
2023-07-31T17:55:53.868Z,1.10
2023-07-31T17:58:21.031Z,1.13
2023-07-31T18:00:49.571Z,1.35
2023-07-31T18:03:16.640Z,1.30
2023-07-31T18:05:43.804Z,1.20
2023-07-31T18:08:10.805Z,1.55
2023-07-31T18:10:45.188Z,1.67
2023-07-31T18:13:12.360Z,1.33
2023-07-31T18:15:40.225Z,1.25
2023-07-31T18:18:08.720Z,1.33
2023-07-31T18:20:36.724Z,1.45
2023-07-31T18:23:03.845Z,1.23
2023-07-31T18:25:30.889Z,1.55
2023-07-31T18:27:57.975Z,1.33
2023-07-31T18:30:24.943Z,1.08
2023-07-31T18:32:52.068Z,1.13
2023-07-31T18:35:20.593Z,1.17
2023-07-31T18:37:47.548Z,1.40
2023-07-31T18:40:14.652Z,1.42
2023-07-31T18:42:41.551Z,1.10
2023-07-31T18:45:08.817Z,1.60
2023-07-31T18:47:35.857Z,1.60
2023-07-31T18:50:03.667Z,2.13
2023-07-31T18:52:32.207Z,2.00
2023-07-31T18:54:59.244Z,1.42
2023-07-31T18:57:26.913Z,1.52
2023-07-31T18:59:53.920Z,1.67
2023-07-31T19:02:20.964Z,1.30
2023-07-31T19:04:47.941Z,1.45
2023-07-31T19:07:14.978Z,1.55
2023-07-31T19:09:43.350Z,1.90
2023-07-31T19:12:10.333Z,1.67
2023-07-31T19:14:37.507Z,2.03
2023-07-31T19:17:04.868Z,1.65
2023-07-31T19:19:31.784Z,1.40
2023-07-31T19:21:58.983Z,1.40
2023-07-31T19:24:31.837Z,1.17
2023-07-31T19:27:04.031Z,1.40
2023-07-31T19:29:30.937Z,1.10
2023-07-31T19:31:57.962Z,1.38
2023-07-31T19:34:26.576Z,1.33
2023-07-31T19:36:53.691Z,1.30
2023-07-31T19:39:20.824Z,1.45
2023-07-31T19:41:47.942Z,1.60
2023-07-31T19:44:16.306Z,1.35
2023-07-31T19:46:43.461Z,1.33
2023-07-31T19:49:10.569Z,1.50
2023-07-31T19:51:37.477Z,1.30
2023-07-31T19:54:04.629Z,1.60
2023-07-31T19:56:31.645Z,1.10
2023-07-31T19:58:58.704Z,1.33
2023-07-31T20:01:27.190Z,1.02
2023-07-31T20:03:54.656Z,1.40
2023-07-31T20:06:21.904Z,0.93
2023-07-31T20:08:48.967Z,1.20
2023-07-31T20:11:15.964Z,1.10
2023-07-31T20:13:43.050Z,1.15
2023-07-31T20:16:10.275Z,1.05
2023-07-31T20:18:42.067Z,1.23
2023-07-31T20:21:09.004Z,1.13
2023-07-31T20:23:43.119Z,1.08
2023-07-31T20:26:11.130Z,1.25
2023-07-31T20:28:38.366Z,1.13
2023-07-31T20:31:05.591Z,1.88
2023-07-31T20:33:32.799Z,1.05
2023-07-31T20:36:01.198Z,1.30
2023-07-31T20:38:28.114Z,1.38
2023-07-31T20:40:55.153Z,1.40
2023-07-31T20:43:22.215Z,1.00
2023-07-31T20:45:49.299Z,1.08
2023-07-31T20:48:16.424Z,1.00
2023-07-31T20:50:43.463Z,1.13
2023-07-31T20:53:12.314Z,1.10
2023-07-31T20:55:40.024Z,1.00
2023-07-31T20:58:07.134Z,1.00
2023-07-31T21:00:34.188Z,1.27
2023-07-31T21:03:01.152Z,1.00
2023-07-31T21:05:28.283Z,1.25
2023-07-31T21:07:55.352Z,1.17
2023-07-31T21:10:23.947Z,0.90
2023-07-31T21:12:51.056Z,1.00
2023-07-31T21:15:18.058Z,1.00
2023-07-31T21:17:45.183Z,1.08
2023-07-31T21:20:12.521Z,1.08
2023-07-31T21:22:39.745Z,1.20
2023-07-31T21:25:07.489Z,1.20
2023-07-31T21:30:03.542Z,1.10
2023-07-31T21:34:57.461Z,1.25
2023-07-31T21:37:24.430Z,1.13
2023-07-31T21:39:51.544Z,1.10
2023-07-31T21:42:19.122Z,1.00
2023-07-31T21:44:47.374Z,1.23
2023-07-31T21:47:14.432Z,0.98
2023-07-31T21:49:41.438Z,1.23
2023-07-31T21:52:08.698Z,0.90
2023-07-31T21:54:35.628Z,0.95
2023-07-31T21:57:02.649Z,1.05
2023-07-31T21:59:30.677Z,0.90
2023-07-31T22:01:59.059Z,1.20
2023-07-31T22:04:26.014Z,1.27
2023-07-31T22:06:53.083Z,1.17
2023-07-31T22:09:19.993Z,1.10
2023-07-31T22:11:47.051Z,1.17
2023-07-31T22:14:14.017Z,1.20
2023-07-31T22:16:41.287Z,1.08
2023-07-31T22:19:09.805Z,1.02
2023-07-31T22:21:37.840Z,1.05
2023-07-31T22:24:05.083Z,1.52
2023-07-31T22:26:32.087Z,0.90
2023-07-31T22:28:59.182Z,1.27
2023-07-31T22:31:26.319Z,1.17
2023-07-31T22:33:53.232Z,1.00
2023-07-31T22:36:21.666Z,1.23
2023-07-31T22:38:48.585Z,1.10
2023-07-31T22:41:15.648Z,1.25
2023-07-31T22:43:42.616Z,1.10
2023-07-31T22:46:09.803Z,1.55
2023-07-31T22:48:37.368Z,1.27
2023-07-31T22:53:35.092Z,1.20
2023-07-31T22:56:04.172Z,1.00
2023-07-31T22:58:31.177Z,1.08
2023-07-31T23:01:02.598Z,1.08
2023-07-31T23:03:29.735Z,1.23
2023-07-31T23:05:56.657Z,1.35
2023-07-31T23:08:23.832Z,0.85
2023-07-31T23:10:52.192Z,1.13
2023-07-31T23:13:19.855Z,1.77
2023-07-31T23:15:47.063Z,1.25
2023-07-31T23:18:14.208Z,1.52
2023-07-31T23:20:41.404Z,0.90
2023-07-31T23:23:09.710Z,1.30
2023-07-31T23:25:37.050Z,0.90
2023-07-31T23:28:08.116Z,1.17
2023-07-31T23:30:35.137Z,1.10
2023-07-31T23:33:02.256Z,1.25
2023-07-31T23:35:29.646Z,1.05
2023-07-31T23:37:56.604Z,1.00
2023-07-31T23:40:23.749Z,1.10
2023-07-31T23:42:50.862Z,1.30
2023-07-31T23:45:20.098Z,1.40
2023-07-31T23:47:47.427Z,1.27
2023-07-31T23:50:14.790Z,1.50
2023-07-31T23:52:42.319Z,1.27
2023-07-31T23:55:10.222Z,1.30
2023-07-31T23:57:37.274Z,1.52
